createdAt,value
2022-10-14T00:01:13.838Z,23.83
2022-10-14T00:03:42.215Z,25.23
2022-10-14T00:06:12.790Z,26.00
2022-10-14T00:08:41.636Z,25.97
2022-10-14T00:11:13.042Z,27.50
2022-10-14T00:13:41.402Z,24.53
2022-10-14T00:16:16.817Z,25.73
2022-10-14T00:18:44.680Z,23.40
2022-10-14T00:21:12.503Z,24.73
2022-10-14T00:23:41.153Z,27.03
2022-10-14T00:26:16.471Z,22.20
2022-10-14T00:28:44.493Z,24.17
2022-10-14T00:31:12.310Z,26.30
2022-10-14T00:33:40.514Z,24.27
2022-10-14T00:36:09.726Z,25.17
2022-10-14T00:38:37.773Z,22.10
2022-10-14T00:41:06.423Z,23.77
2022-10-14T00:43:56.169Z,25.47
2022-10-14T00:46:24.870Z,23.80
2022-10-14T00:48:53.648Z,24.00
2022-10-14T00:51:22.408Z,26.57
2022-10-14T00:53:50.784Z,25.17
2022-10-14T00:56:23.702Z,21.37
2022-10-14T00:58:52.732Z,21.57
2022-10-14T01:01:23.327Z,22.07
2022-10-14T01:03:51.451Z,23.80
2022-10-14T01:06:31.994Z,23.07
2022-10-14T01:09:04.369Z,22.60
2022-10-14T01:11:43.457Z,19.33
2022-10-14T01:14:19.954Z,18.87
2022-10-14T01:16:58.107Z,21.60
2022-10-14T01:20:07.664Z,19.57
2022-10-14T01:22:42.162Z,19.40
2022-10-14T01:25:20.826Z,19.93
2022-10-14T01:28:18.589Z,18.17
2022-10-14T01:30:51.707Z,18.83
2022-10-14T01:33:26.053Z,20.90
2022-10-14T01:36:03.668Z,19.87
2022-10-14T01:38:35.854Z,16.80
2022-10-14T01:41:09.141Z,21.23
2022-10-14T01:43:39.462Z,20.43
2022-10-14T01:46:11.047Z,21.17
2022-10-14T01:48:43.234Z,21.73
2022-10-14T01:51:15.515Z,17.83
2022-10-14T01:53:47.039Z,19.27
2022-10-14T01:56:16.975Z,16.40
2022-10-14T01:58:46.236Z,18.27
2022-10-14T02:01:16.037Z,17.60
2022-10-14T02:03:46.471Z,18.40
2022-10-14T02:06:19.530Z,18.33
2022-10-14T02:09:02.039Z,16.37
2022-10-14T02:11:35.341Z,16.10
2022-10-14T02:14:13.040Z,14.80
2022-10-14T02:16:50.188Z,17.37
2022-10-14T02:19:28.626Z,13.93
2022-10-14T02:22:03.321Z,19.23
2022-10-14T02:24:40.817Z,16.53
2022-10-14T02:27:12.698Z,17.87
2022-10-14T02:29:43.463Z,17.63
2022-10-14T02:32:16.037Z,18.67
2022-10-14T02:34:46.257Z,15.63
2022-10-14T02:37:16.727Z,17.37
2022-10-14T02:39:50.671Z,17.63
2022-10-14T02:42:18.978Z,18.77
2022-10-14T02:44:54.961Z,17.40
2022-10-14T02:47:24.771Z,18.83
2022-10-14T02:49:53.144Z,16.47
2022-10-14T02:52:21.577Z,17.50
2022-10-14T02:54:49.588Z,17.33
2022-10-14T02:57:17.695Z,18.83
2022-10-14T02:59:45.686Z,16.60
2022-10-14T03:02:13.647Z,18.27
2022-10-14T03:04:42.906Z,18.63
2022-10-14T03:07:10.827Z,17.10
2022-10-14T03:09:42.134Z,19.63
2022-10-14T03:12:10.178Z,16.83
2022-10-14T03:14:38.285Z,16.57
2022-10-14T03:17:06.461Z,16.30
2022-10-14T03:19:34.625Z,18.93
2022-10-14T03:22:05.039Z,16.37
2022-10-14T03:24:33.266Z,19.50
2022-10-14T03:27:01.127Z,19.77
2022-10-14T03:29:28.976Z,17.07
2022-10-14T03:31:57.080Z,18.63
2022-10-14T03:34:25.000Z,18.07
2022-10-14T03:36:53.400Z,17.63
2022-10-14T03:39:25.383Z,17.23
2022-10-14T03:41:53.962Z,22.23
2022-10-14T03:44:22.594Z,18.87
2022-10-14T03:46:50.774Z,20.20
2022-10-14T03:49:18.534Z,17.63
2022-10-14T03:51:46.834Z,17.90
2022-10-14T03:54:14.697Z,18.20
2022-10-14T03:56:44.002Z,18.60
2022-10-14T03:59:12.267Z,20.47
2022-10-14T04:01:40.165Z,18.20
2022-10-14T04:04:08.538Z,17.97
2022-10-14T04:06:37.769Z,17.73
2022-10-14T04:09:06.242Z,18.70
2022-10-14T04:11:34.204Z,19.47
2022-10-14T04:14:03.682Z,19.47
2022-10-14T04:16:31.700Z,18.30
2022-10-14T04:19:00.138Z,16.37
2022-10-14T04:21:28.132Z,17.10
2022-10-14T04:23:56.142Z,18.33
2022-10-14T04:26:24.510Z,19.80
2022-10-14T04:28:52.463Z,16.97
2022-10-14T04:31:22.743Z,22.33
2022-10-14T04:33:51.070Z,22.97
2022-10-14T04:36:18.973Z,16.60
2022-10-14T04:38:46.949Z,17.70
2022-10-14T04:41:15.137Z,18.13
2022-10-14T04:43:43.103Z,19.97
2022-10-14T04:46:11.098Z,15.33
2022-10-14T04:48:40.933Z,17.87
2022-10-14T04:51:08.830Z,20.33
2022-10-14T04:53:36.810Z,20.33
2022-10-14T04:56:05.189Z,16.80
2022-10-14T04:58:33.191Z,18.60
2022-10-14T05:01:01.217Z,16.47
2022-10-14T05:03:29.301Z,24.57
2022-10-14T05:05:58.662Z,20.70
2022-10-14T05:08:26.781Z,18.20
2022-10-14T05:10:57.508Z,17.97
2022-10-14T05:13:27.245Z,17.83
2022-10-14T05:15:55.511Z,18.73
2022-10-14T05:18:24.184Z,17.63
2022-10-14T05:20:52.306Z,19.00
2022-10-14T05:23:21.662Z,18.40
2022-10-14T05:25:49.916Z,20.43
2022-10-14T05:28:17.838Z,19.23
2022-10-14T05:30:45.826Z,19.43
2022-10-14T05:33:13.748Z,21.73
2022-10-14T05:35:58.071Z,21.67
2022-10-14T05:38:28.987Z,21.50
2022-10-14T05:40:58.378Z,15.67
2022-10-14T05:43:32.052Z,20.20
2022-10-14T05:46:01.342Z,19.77
2022-10-14T05:48:29.212Z,19.90
2022-10-14T05:51:01.374Z,19.17
2022-10-14T05:53:32.365Z,17.73
2022-10-14T05:56:04.742Z,19.73
2022-10-14T05:58:33.135Z,18.57
2022-10-14T06:01:01.362Z,24.93
2022-10-14T06:03:29.553Z,21.83
2022-10-14T06:05:57.480Z,18.70
2022-10-14T06:08:25.842Z,21.27
2022-10-14T06:10:55.706Z,19.07
2022-10-14T06:13:23.791Z,21.77
2022-10-14T06:15:52.201Z,22.40
2022-10-14T06:18:20.001Z,18.43
2022-10-14T06:20:52.961Z,21.33
2022-10-14T06:23:20.723Z,22.20
2022-10-14T06:25:48.650Z,19.07
2022-10-14T06:28:18.011Z,18.47
2022-10-14T06:30:50.754Z,20.67
2022-10-14T06:33:18.582Z,23.13
2022-10-14T06:35:46.746Z,19.03
2022-10-14T06:38:15.260Z,20.60
2022-10-14T06:40:43.293Z,19.43
2022-10-14T06:43:11.309Z,18.70
2022-10-14T06:45:40.442Z,19.87
2022-10-14T06:48:08.231Z,21.20
2022-10-14T06:50:36.297Z,19.47
2022-10-14T06:53:04.135Z,17.20
2022-10-14T06:55:32.229Z,15.00
2022-10-14T06:58:00.169Z,15.20
2022-10-14T07:00:28.277Z,16.00
2022-10-14T07:02:59.241Z,17.80
2022-10-14T07:05:27.627Z,18.60
2022-10-14T07:07:55.962Z,14.43
2022-10-14T07:10:24.298Z,13.27
2022-10-14T07:12:55.245Z,16.10
2022-10-14T07:15:26.243Z,14.37
2022-10-14T07:17:54.887Z,15.33
2022-10-14T07:20:26.833Z,17.07
2022-10-14T07:22:56.977Z,14.73
2022-10-14T07:25:25.191Z,14.53
2022-10-14T07:28:00.135Z,15.37
2022-10-14T07:30:35.381Z,17.43
2022-10-14T07:33:03.230Z,15.70
2022-10-14T07:35:32.839Z,14.40
2022-10-14T07:38:01.288Z,16.63
2022-10-14T07:40:29.634Z,15.63
2022-10-14T07:42:57.994Z,15.00
2022-10-14T07:45:27.105Z,15.73
2022-10-14T07:47:55.250Z,13.40
2022-10-14T07:50:23.743Z,15.83
2022-10-14T07:52:55.682Z,16.83
2022-10-14T07:55:26.290Z,14.50
2022-10-14T07:57:54.286Z,15.37
2022-10-14T08:00:22.781Z,14.83
2022-10-14T08:02:51.733Z,14.57
2022-10-14T08:05:37.183Z,14.87
2022-10-14T08:08:10.395Z,14.20
2022-10-14T08:10:39.709Z,17.57
2022-10-14T08:13:08.369Z,16.80
2022-10-14T08:15:38.892Z,22.07
2022-10-14T08:18:08.093Z,22.00
2022-10-14T08:20:36.505Z,20.47
2022-10-14T08:23:04.491Z,20.23
2022-10-14T08:25:34.289Z,20.50
2022-10-14T08:28:02.224Z,22.13
2022-10-14T08:30:30.107Z,20.67
2022-10-14T08:33:00.021Z,24.10
2022-10-14T08:35:28.249Z,20.37
2022-10-14T08:37:58.216Z,19.90
2022-10-14T08:40:28.975Z,18.20
2022-10-14T08:43:02.331Z,18.70
2022-10-14T08:45:34.803Z,19.07
2022-10-14T08:48:10.689Z,14.87
2022-10-14T08:50:45.612Z,17.63
2022-10-14T08:53:15.927Z,14.73
2022-10-14T08:55:47.518Z,17.30
2022-10-14T08:58:23.164Z,15.03
2022-10-14T09:00:53.404Z,15.97
2022-10-14T09:03:23.924Z,14.40
2022-10-14T09:05:58.508Z,15.00
2022-10-14T09:08:30.992Z,15.40
2022-10-14T09:10:59.865Z,16.23
2022-10-14T09:13:35.899Z,13.67
2022-10-14T09:16:09.315Z,14.33
2022-10-14T09:18:41.631Z,14.40
2022-10-14T09:24:22.665Z,15.60
2022-10-14T09:26:54.080Z,13.20
2022-10-14T09:29:28.900Z,15.90
2022-10-14T09:31:59.689Z,12.17
2022-10-14T09:34:33.884Z,14.20
2022-10-14T09:37:18.068Z,11.53
2022-10-14T09:39:47.648Z,14.30
2022-10-14T09:42:21.409Z,13.63
2022-10-14T09:45:09.622Z,15.03
2022-10-14T09:47:46.280Z,13.17
2022-10-14T09:50:24.105Z,14.40
2022-10-14T09:52:59.863Z,14.03
2022-10-14T09:55:28.346Z,14.73
2022-10-14T09:58:05.733Z,15.33
2022-10-14T10:00:37.860Z,13.27
2022-10-14T10:03:06.873Z,16.40
2022-10-14T10:05:36.923Z,12.10
2022-10-14T10:08:17.021Z,13.10
2022-10-14T10:11:03.538Z,13.60
2022-10-14T10:13:40.520Z,10.47
2022-10-14T10:16:22.880Z,10.97
2022-10-14T10:18:52.105Z,11.40
2022-10-14T10:21:26.161Z,10.93
2022-10-14T10:23:57.963Z,10.27
2022-10-14T10:26:30.107Z,11.27
2022-10-14T10:28:59.953Z,9.17
2022-10-14T10:32:09.431Z,9.90
2022-10-14T10:34:51.971Z,12.20
2022-10-14T10:37:29.380Z,7.73
2022-10-14T10:40:21.896Z,9.37
2022-10-14T10:43:07.500Z,9.77
2022-10-14T10:45:50.101Z,9.20
2022-10-14T10:48:27.552Z,10.43
2022-10-14T10:51:01.356Z,10.27
2022-10-14T10:53:50.263Z,11.87
2022-10-14T10:56:31.309Z,7.77
2022-10-14T10:59:20.486Z,9.60
2022-10-14T11:01:56.595Z,9.83
2022-10-14T11:04:31.979Z,8.37
2022-10-14T11:07:30.882Z,7.63
2022-10-14T11:10:25.768Z,6.53
2022-10-14T11:13:00.902Z,9.33
2022-10-14T11:15:41.753Z,8.43
2022-10-14T11:18:15.719Z,9.77
2022-10-14T11:21:01.683Z,8.23
2022-10-14T11:23:59.841Z,10.50
2022-10-14T11:26:47.905Z,6.80
2022-10-14T11:29:32.387Z,5.80
2022-10-14T11:32:10.325Z,8.73
2022-10-14T11:34:44.845Z,9.47
2022-10-14T11:37:26.462Z,8.60
2022-10-14T11:39:58.693Z,8.67
2022-10-14T11:42:34.450Z,7.57
2022-10-14T11:45:21.261Z,7.27
2022-10-14T11:47:54.017Z,10.93
2022-10-14T11:50:25.749Z,9.37
2022-10-14T11:53:01.757Z,7.47
2022-10-14T11:55:36.147Z,6.77
2022-10-14T11:58:12.562Z,7.20
2022-10-14T12:01:02.687Z,8.33
2022-10-14T12:03:46.352Z,6.87
2022-10-14T12:06:19.850Z,6.73
2022-10-14T12:08:56.996Z,6.50
2022-10-14T12:11:30.925Z,8.43
2022-10-14T12:14:06.360Z,7.20
2022-10-14T12:16:43.504Z,8.13
2022-10-14T12:19:18.829Z,9.40
2022-10-14T12:21:51.691Z,7.47
2022-10-14T12:24:23.444Z,7.53
2022-10-14T12:26:53.889Z,9.43
2022-10-14T12:29:23.887Z,7.70
2022-10-14T12:32:10.015Z,5.90
2022-10-14T12:34:40.243Z,6.80
2022-10-14T12:37:51.272Z,8.50
2022-10-14T12:40:31.794Z,5.93
2022-10-14T12:43:05.591Z,7.17
2022-10-14T12:45:36.899Z,6.33
2022-10-14T12:48:12.325Z,9.13
2022-10-14T12:50:42.551Z,10.70
2022-10-14T12:53:25.565Z,7.87
2022-10-14T12:55:57.697Z,8.60
2022-10-14T12:58:31.645Z,8.80
2022-10-14T13:01:04.368Z,9.60
2022-10-14T13:03:35.767Z,7.83
2022-10-14T13:06:47.056Z,8.40
2022-10-14T13:09:33.512Z,9.03
2022-10-14T13:12:43.951Z,10.97
2022-10-14T13:15:49.329Z,8.07
2022-10-14T13:18:54.312Z,8.40
2022-10-14T13:21:53.808Z,7.37
2022-10-14T13:24:27.912Z,8.93
2022-10-14T13:27:16.162Z,7.73
2022-10-14T13:30:01.851Z,6.63
2022-10-14T13:32:41.876Z,8.07
2022-10-14T13:35:22.391Z,6.43
2022-10-14T13:38:00.673Z,7.00
2022-10-14T13:40:34.585Z,7.70
2022-10-14T13:43:07.630Z,5.27
2022-10-14T13:45:42.168Z,5.90
2022-10-14T13:48:16.844Z,4.73
2022-10-14T13:50:45.606Z,8.40
2022-10-14T13:53:17.614Z,5.47
2022-10-14T13:55:50.359Z,5.33
2022-10-14T13:58:22.972Z,6.30
2022-10-14T14:01:00.639Z,7.43
2022-10-14T14:03:35.241Z,6.87
2022-10-14T14:06:04.955Z,5.60
2022-10-14T14:08:40.533Z,6.13
2022-10-14T14:11:18.739Z,6.03
2022-10-14T14:13:55.866Z,7.60
2022-10-14T14:16:31.193Z,7.47
2022-10-14T14:19:08.831Z,8.47
2022-10-14T14:21:39.489Z,7.17
2022-10-14T14:24:19.029Z,6.00
2022-10-14T14:26:47.065Z,8.80
2022-10-14T14:29:18.744Z,34.90
2022-10-14T14:32:01.842Z,23.60
2022-10-14T14:34:36.948Z,24.13
2022-10-14T14:37:17.575Z,83.53
2022-10-14T14:40:01.376Z,127.10
2022-10-14T14:42:35.880Z,93.60
2022-10-14T14:45:09.060Z,68.53
2022-10-14T14:47:37.423Z,63.43
2022-10-14T14:50:29.476Z,81.73
2022-10-14T14:53:01.694Z,54.33
2022-10-14T14:55:43.320Z,75.97
2022-10-14T14:58:27.340Z,59.83
2022-10-14T15:00:55.745Z,30.67
2022-10-14T15:03:25.132Z,34.50
2022-10-14T15:05:58.646Z,33.10
2022-10-14T15:08:28.389Z,42.63
2022-10-14T15:10:58.786Z,44.67
2022-10-14T15:13:30.366Z,46.47
2022-10-14T15:15:58.823Z,39.57
2022-10-14T15:18:28.566Z,36.90
2022-10-14T15:21:15.187Z,30.03
2022-10-14T15:23:46.959Z,32.93
2022-10-14T15:26:29.537Z,49.03
2022-10-14T15:29:18.781Z,74.13
2022-10-14T15:31:48.764Z,89.43
2022-10-14T15:34:19.763Z,92.60
2022-10-14T15:36:50.799Z,87.37
2022-10-14T15:39:18.637Z,52.97
2022-10-14T15:41:47.184Z,52.70
2022-10-14T15:44:15.289Z,46.53
2022-10-14T15:47:02.761Z,43.43
2022-10-14T15:49:33.681Z,27.90
2022-10-14T15:52:02.995Z,24.30
2022-10-14T15:54:31.086Z,22.67
2022-10-14T15:56:59.370Z,28.03
2022-10-14T15:59:27.627Z,34.17
2022-10-14T16:01:55.816Z,26.50
2022-10-14T16:04:27.987Z,34.30
2022-10-14T16:06:57.877Z,34.67
2022-10-14T16:09:28.551Z,35.90
2022-10-14T16:11:58.111Z,43.90
2022-10-14T16:14:27.004Z,38.50
2022-10-14T16:16:55.200Z,22.40
2022-10-14T16:19:23.438Z,28.57
2022-10-14T16:21:51.395Z,24.53
2022-10-14T16:24:21.244Z,30.10
2022-10-14T16:26:50.835Z,29.87
2022-10-14T16:29:19.293Z,17.80
2022-10-14T16:31:49.689Z,24.37
2022-10-14T16:34:17.969Z,15.73
2022-10-14T16:36:46.323Z,16.13
2022-10-14T16:39:14.467Z,12.50
2022-10-14T16:41:42.957Z,15.30
2022-10-14T16:44:24.199Z,13.87
2022-10-14T16:47:10.139Z,14.43
2022-10-14T16:49:38.534Z,13.43
2022-10-14T16:52:06.574Z,12.33
2022-10-14T16:54:34.538Z,14.67
2022-10-14T16:57:02.770Z,12.80
2022-10-14T16:59:32.537Z,13.80
2022-10-14T17:02:00.933Z,11.73
2022-10-14T17:04:29.203Z,11.57
2022-10-14T17:06:57.510Z,13.10
2022-10-14T17:11:58.325Z,12.37
2022-10-14T17:14:27.970Z,10.50
2022-10-14T17:16:57.159Z,10.17
2022-10-14T17:19:25.087Z,11.60
2022-10-14T17:21:52.872Z,12.07
2022-10-14T17:24:20.765Z,10.77
2022-10-14T17:26:48.728Z,12.23
2022-10-14T17:29:16.654Z,12.47
2022-10-14T17:31:45.000Z,13.07
2022-10-14T17:34:14.312Z,12.73
2022-10-14T17:36:42.519Z,12.67
2022-10-14T17:39:18.777Z,12.53
2022-10-14T17:41:53.008Z,12.13
2022-10-14T17:44:20.860Z,11.50
2022-10-14T17:46:48.729Z,13.67
2022-10-14T17:49:17.931Z,14.57
2022-10-14T17:51:45.883Z,14.00
2022-10-14T17:54:14.101Z,12.63
2022-10-14T17:56:43.108Z,11.47
2022-10-14T17:59:14.260Z,11.53
2022-10-14T18:02:02.510Z,10.17
2022-10-14T18:04:32.904Z,10.90
2022-10-14T18:07:01.274Z,11.10
2022-10-14T18:09:29.139Z,11.37
2022-10-14T18:12:12.982Z,11.30
2022-10-14T18:14:41.370Z,11.03
2022-10-14T18:17:12.290Z,10.43
2022-10-14T18:19:41.778Z,13.77
2022-10-14T18:22:11.122Z,10.10
2022-10-14T18:24:39.588Z,10.70
2022-10-14T18:27:07.878Z,9.37
2022-10-14T18:29:35.741Z,9.40
2022-10-14T18:32:03.586Z,11.03
2022-10-14T18:34:31.606Z,10.00
2022-10-14T18:37:00.754Z,9.10
2022-10-14T18:39:28.674Z,10.57
2022-10-14T18:41:56.685Z,9.30
2022-10-14T18:44:24.722Z,11.57
2022-10-14T18:46:52.854Z,10.30
2022-10-14T18:49:20.816Z,10.50
2022-10-14T18:51:48.727Z,10.17
2022-10-14T18:54:20.752Z,12.00
2022-10-14T18:56:48.778Z,10.37
2022-10-14T18:59:18.850Z,10.90
2022-10-14T19:01:47.716Z,8.80
2022-10-14T19:04:17.601Z,9.20
2022-10-14T19:06:48.609Z,9.30
2022-10-14T19:09:24.595Z,12.33
2022-10-14T19:11:55.584Z,9.67
2022-10-14T19:14:23.567Z,7.97
2022-10-14T19:16:51.824Z,8.77
2022-10-14T19:19:20.992Z,9.53
2022-10-14T19:21:50.300Z,8.30
2022-10-14T19:24:19.563Z,7.00
2022-10-14T19:26:49.837Z,9.17
2022-10-14T19:29:18.925Z,8.57
2022-10-14T19:31:46.921Z,9.17
2022-10-14T19:34:16.397Z,7.83
2022-10-14T19:36:45.807Z,7.27
2022-10-14T19:39:16.385Z,8.90
2022-10-14T19:41:47.222Z,8.80
2022-10-14T19:44:16.602Z,9.00
2022-10-14T19:46:45.481Z,8.30
2022-10-14T19:49:15.201Z,8.40
2022-10-14T19:51:43.388Z,8.33
2022-10-14T19:54:12.715Z,9.67
2022-10-14T19:56:40.795Z,9.83
2022-10-14T19:59:10.711Z,7.00
2022-10-14T20:01:38.678Z,6.40
2022-10-14T20:04:06.910Z,7.13
2022-10-14T20:06:36.548Z,4.13
2022-10-14T20:09:05.062Z,3.37
2022-10-14T20:11:33.054Z,3.13
2022-10-14T20:14:00.961Z,1.60
2022-10-14T20:16:30.210Z,2.83
2022-10-14T20:18:58.053Z,2.20
2022-10-14T20:21:26.347Z,2.77
2022-10-14T20:23:54.283Z,2.97
2022-10-14T20:26:23.157Z,4.97
2022-10-14T20:28:52.038Z,4.40
2022-10-14T20:31:22.150Z,4.10
2022-10-14T20:33:51.354Z,6.97
2022-10-14T20:36:20.706Z,6.03
2022-10-14T20:38:49.537Z,4.53
2022-10-14T20:41:19.138Z,4.00
2022-10-14T20:43:48.001Z,4.10
2022-10-14T20:46:16.263Z,4.90
2022-10-14T20:48:44.638Z,5.17
2022-10-14T20:51:16.089Z,4.53
2022-10-14T20:53:43.950Z,4.43
2022-10-14T20:56:13.526Z,2.83
2022-10-14T20:58:41.513Z,2.27
2022-10-14T21:01:10.891Z,2.23
2022-10-14T21:03:39.700Z,2.77
2022-10-14T21:06:09.747Z,2.00
2022-10-14T21:08:39.519Z,2.20
2022-10-14T21:11:13.672Z,2.37
2022-10-14T21:13:45.193Z,2.00
2022-10-14T21:16:17.800Z,1.70
2022-10-14T21:18:47.055Z,2.10
2022-10-14T21:21:16.806Z,3.77
2022-10-14T21:23:46.497Z,3.57
2022-10-14T21:26:14.501Z,2.17
2022-10-14T21:28:42.836Z,2.87
2022-10-14T21:31:14.674Z,2.13
2022-10-14T21:33:45.381Z,2.23
2022-10-14T21:36:14.897Z,2.80
2022-10-14T21:38:43.499Z,2.53
2022-10-14T21:41:12.941Z,3.60
2022-10-14T21:43:41.513Z,3.50
2022-10-14T21:46:11.758Z,3.70
2022-10-14T21:48:40.225Z,4.93
2022-10-14T21:51:10.338Z,5.23
2022-10-14T21:53:38.920Z,4.37
2022-10-14T21:56:07.480Z,5.73
2022-10-14T21:58:37.017Z,4.93
2022-10-14T22:01:07.507Z,5.93
2022-10-14T22:03:36.237Z,4.93
2022-10-14T22:08:35.764Z,6.40
2022-10-14T22:11:04.656Z,6.17
2022-10-14T22:13:33.129Z,6.37
2022-10-14T22:16:02.449Z,6.40
2022-10-14T22:18:30.258Z,6.53
2022-10-14T22:21:04.873Z,6.83
2022-10-14T22:23:33.149Z,7.50
2022-10-14T22:26:01.610Z,9.03
2022-10-14T22:28:30.591Z,7.80
2022-10-14T22:31:07.223Z,13.07
2022-10-14T22:33:38.006Z,9.63
2022-10-14T22:36:07.650Z,8.77
2022-10-14T22:38:36.490Z,8.93
2022-10-14T22:41:05.158Z,9.17
2022-10-14T22:43:33.273Z,10.07
2022-10-14T22:46:01.537Z,8.70
2022-10-14T22:48:30.305Z,8.93
2022-10-14T22:51:03.985Z,9.57
2022-10-14T22:53:32.276Z,10.40
2022-10-14T22:56:01.078Z,8.27
2022-10-14T22:58:29.180Z,8.13
2022-10-14T23:00:57.296Z,7.57
2022-10-14T23:03:25.518Z,8.20
2022-10-14T23:05:53.382Z,8.10
2022-10-14T23:08:22.592Z,7.83
2022-10-14T23:10:51.675Z,6.90
2022-10-14T23:13:19.466Z,6.50
2022-10-14T23:15:55.883Z,6.50
2022-10-14T23:18:23.956Z,8.20
2022-10-14T23:20:51.719Z,6.97
2022-10-14T23:23:19.703Z,6.57
2022-10-14T23:25:48.867Z,5.70
2022-10-14T23:28:16.861Z,7.30
2022-10-14T23:30:44.689Z,5.10
2022-10-14T23:33:12.585Z,7.63
2022-10-14T23:35:40.540Z,5.07
2022-10-14T23:38:08.367Z,5.90
2022-10-14T23:40:36.111Z,5.20
2022-10-14T23:43:05.207Z,5.27
2022-10-14T23:45:33.036Z,4.87
2022-10-14T23:48:00.962Z,6.70
2022-10-14T23:50:28.778Z,4.00
2022-10-14T23:52:56.523Z,5.13
2022-10-14T23:55:24.313Z,6.50
2022-10-14T23:57:52.142Z,5.43
